createdAt,value
2023-08-15T00:03:07.883Z,101103.34
2023-08-15T00:08:10.485Z,101097.97
2023-08-15T00:13:14.323Z,101113.09
2023-08-15T00:18:16.859Z,101108.59
2023-08-15T00:23:19.444Z,101118.41
2023-08-15T00:28:23.302Z,101127.34
2023-08-15T00:33:25.879Z,101120.19
2023-08-15T00:38:28.415Z,101116.56
2023-08-15T00:43:32.239Z,101120.16
2023-08-15T00:48:35.480Z,101123.72
2023-08-15T00:53:38.200Z,101106.69
2023-08-15T00:58:43.134Z,101106.66
2023-08-15T01:03:46.999Z,101100.38
2023-08-15T01:08:50.121Z,101102.13
2023-08-15T01:14:01.798Z,101109.22
2023-08-15T01:19:09.560Z,101106.53
2023-08-15T01:24:13.627Z,101102.06
2023-08-15T01:29:16.145Z,101102.94
2023-08-15T01:34:23.002Z,101120.75
2023-08-15T01:39:30.673Z,101127.00
2023-08-15T01:44:35.648Z,101112.66
2023-08-15T01:49:38.186Z,101115.31
2023-08-15T01:54:42.320Z,101110.84
2023-08-15T01:59:45.110Z,101103.66
2023-08-15T02:04:47.689Z,101097.41
2023-08-15T02:09:51.552Z,101097.38
2023-08-15T02:14:54.071Z,101097.38
2023-08-15T02:19:57.161Z,101091.97
2023-08-15T02:25:01.004Z,101086.63
2023-08-15T02:30:04.396Z,101087.47
2023-08-15T02:35:08.089Z,101077.59
2023-08-15T02:40:13.303Z,101080.28
2023-08-15T02:45:15.919Z,101083.81
2023-08-15T02:50:18.595Z,101076.66
2023-08-15T02:55:22.473Z,101064.09
2023-08-15T03:00:25.086Z,101069.41
2023-08-15T03:05:27.592Z,101070.28
2023-08-15T03:10:33.893Z,101078.28
2023-08-15T03:15:37.844Z,101084.44
2023-08-15T03:20:40.363Z,101075.38
2023-08-15T03:25:44.205Z,101079.59
2023-08-15T03:30:46.739Z,101062.53
2023-08-15T03:35:50.548Z,101068.69
2023-08-15T03:41:02.686Z,101067.81
2023-08-15T03:46:07.190Z,101054.31
2023-08-15T03:51:12.809Z,101049.78
2023-08-15T03:56:16.969Z,101060.47
2023-08-15T04:01:19.693Z,101068.50
2023-08-15T04:06:22.271Z,101070.25
2023-08-15T04:11:26.140Z,101079.13
2023-08-15T04:16:29.804Z,101095.16
2023-08-15T04:21:32.418Z,101098.66
2023-08-15T04:26:36.254Z,101090.66
2023-08-15T04:31:38.853Z,101080.84
2023-08-15T04:36:45.004Z,101094.16
2023-08-15T04:41:48.980Z,101099.47
2023-08-15T04:46:51.490Z,101102.09
2023-08-15T04:51:54.020Z,101111.00
2023-08-15T04:56:57.915Z,101118.97
2023-08-15T05:02:00.423Z,101118.97
2023-08-15T05:07:02.954Z,101123.50
2023-08-15T05:12:07.439Z,101106.59
2023-08-15T05:17:09.965Z,101108.44
2023-08-15T05:22:12.564Z,101099.63
2023-08-15T05:27:16.568Z,101105.09
2023-08-15T05:32:19.143Z,101098.06
2023-08-15T05:37:22.018Z,101103.53
2023-08-15T05:42:26.152Z,101100.09
2023-08-15T05:47:28.792Z,101084.19
2023-08-15T05:52:31.401Z,101081.69
2023-08-15T05:57:35.303Z,101099.69
2023-08-15T06:02:39.959Z,101103.38
2023-08-15T06:07:42.957Z,101104.41
2023-08-15T06:12:46.803Z,101108.09
2023-08-15T06:17:49.420Z,101116.25
2023-08-15T06:22:52.066Z,101111.03
2023-08-15T06:27:55.939Z,101104.94
2023-08-15T06:32:58.528Z,101111.28
2023-08-15T06:38:01.067Z,101122.16
2023-08-15T06:43:05.207Z,101116.88
2023-08-15T06:48:08.338Z,101125.00
2023-08-15T06:53:10.894Z,101125.06
2023-08-15T06:58:14.750Z,101121.50
2023-08-15T07:03:18.544Z,101114.34
2023-08-15T07:08:21.108Z,101109.84
2023-08-15T07:13:25.333Z,101096.31
2023-08-15T07:18:27.850Z,101102.53
2023-08-15T07:23:31.910Z,101099.78
2023-08-15T07:28:35.969Z,101092.47
2023-08-15T07:33:38.531Z,101104.88
2023-08-15T07:38:41.173Z,101121.84
2023-08-15T07:43:45.041Z,101115.44
2023-08-15T07:48:47.670Z,101120.69
2023-08-15T07:53:50.312Z,101134.03
2023-08-15T07:58:54.142Z,101135.63
2023-08-15T08:03:56.813Z,101161.41
2023-08-15T08:09:00.060Z,101149.38
2023-08-15T08:14:04.665Z,101165.28
2023-08-15T08:19:07.274Z,101189.44
2023-08-15T08:24:09.875Z,101185.63
2023-08-15T08:29:13.742Z,101190.06
2023-08-15T08:34:16.301Z,101188.03
2023-08-15T08:39:31.282Z,101182.44
2023-08-15T08:44:37.724Z,101172.22
2023-08-15T08:49:40.390Z,101180.88
2023-08-15T08:59:55.246Z,101184.91
2023-08-15T09:04:57.894Z,101183.06
2023-08-15T09:10:00.421Z,101183.19
2023-08-15T09:15:06.557Z,101160.69
2023-08-15T09:20:11.710Z,101163.25
2023-08-15T09:25:16.369Z,101154.16
2023-08-15T09:30:20.380Z,101163.19
2023-08-15T09:35:23.163Z,101157.75
2023-08-15T09:40:26.710Z,101159.44
2023-08-15T09:45:31.690Z,101156.81
2023-08-15T09:50:35.321Z,101154.13
2023-08-15T09:55:39.631Z,101164.06
2023-08-15T10:00:43.599Z,101165.13
2023-08-15T10:05:49.648Z,101176.91
2023-08-15T10:10:54.019Z,101195.03
2023-08-15T10:15:58.906Z,101199.84
2023-08-15T10:21:03.263Z,101186.72
2023-08-15T10:26:07.005Z,101154.63
2023-08-15T10:31:11.149Z,101156.63
2023-08-15T10:36:13.820Z,101180.22
2023-08-15T10:41:18.766Z,101175.00
2023-08-15T10:46:31.959Z,101168.72
2023-08-15T10:51:35.894Z,101163.41
2023-08-15T10:56:40.134Z,101172.34
2023-08-15T11:01:45.848Z,101170.38
2023-08-15T11:06:50.393Z,101176.31
2023-08-15T11:11:52.922Z,101176.63
2023-08-15T11:16:56.854Z,101181.66
2023-08-15T11:21:59.524Z,101191.66
2023-08-15T11:27:02.523Z,101198.84
2023-08-15T11:32:06.734Z,101203.97
2023-08-15T11:37:12.335Z,101208.19
2023-08-15T11:42:16.298Z,101197.03
2023-08-15T11:47:20.820Z,101209.00
2023-08-15T11:52:23.708Z,101212.81
2023-08-15T11:57:35.608Z,101208.59
2023-08-15T12:02:43.993Z,101208.56
2023-08-15T12:07:48.325Z,101197.13
2023-08-15T12:12:50.863Z,101198.88
2023-08-15T12:17:54.726Z,101191.03
2023-08-15T12:22:57.824Z,101201.47
2023-08-15T12:28:00.383Z,101201.00
2023-08-15T12:33:06.178Z,101210.47
2023-08-15T12:38:08.932Z,101212.13
2023-08-15T12:43:11.604Z,101216.16
2023-08-15T12:48:15.486Z,101218.16
2023-08-15T12:53:18.093Z,101221.91
2023-08-15T12:58:20.626Z,101209.94
2023-08-15T13:03:24.657Z,101208.88
2023-08-15T13:08:27.325Z,101209.28
2023-08-15T13:13:29.852Z,101209.09
2023-08-15T13:18:33.829Z,101220.47
2023-08-15T13:23:36.396Z,101229.09
2023-08-15T13:28:38.905Z,101227.97
2023-08-15T13:33:43.794Z,101217.78
2023-08-15T13:38:46.408Z,101216.19
2023-08-15T13:43:49.726Z,101216.88
2023-08-15T13:48:53.568Z,101224.41
2023-08-15T13:53:56.320Z,101228.72
2023-08-15T13:58:58.856Z,101222.81
2023-08-15T14:04:02.829Z,101221.84
2023-08-15T14:09:06.010Z,101228.75
2023-08-15T14:14:08.566Z,101213.97
2023-08-15T14:19:13.619Z,101219.28
2023-08-15T14:24:16.176Z,101205.50
2023-08-15T14:29:18.697Z,101209.53
2023-08-15T14:34:22.928Z,101206.81
2023-08-15T14:39:25.457Z,101217.69
2023-08-15T14:44:28.270Z,101212.19
2023-08-15T14:49:32.239Z,101211.13
2023-08-15T14:54:34.774Z,101215.50
2023-08-15T14:59:37.350Z,101216.66
2023-08-15T15:04:41.694Z,101226.91
2023-08-15T15:09:44.200Z,101225.53
2023-08-15T15:14:46.740Z,101223.03
2023-08-15T15:19:50.649Z,101229.50
2023-08-15T15:24:53.202Z,101230.78
2023-08-15T15:29:55.844Z,101228.38
2023-08-15T15:34:59.683Z,101229.31
2023-08-15T15:40:02.363Z,101234.63
2023-08-15T15:45:05.231Z,101243.69
2023-08-15T15:50:09.772Z,101242.59
2023-08-15T15:55:12.460Z,101253.94
2023-08-15T16:00:17.259Z,101258.81
2023-08-15T16:05:21.167Z,101266.19
2023-08-15T16:10:23.776Z,101276.34
2023-08-15T16:15:26.411Z,101272.75
2023-08-15T16:20:30.265Z,101280.81
2023-08-15T16:25:32.932Z,101272.94
2023-08-15T16:30:35.455Z,101280.47
2023-08-15T16:35:39.444Z,101302.28
2023-08-15T16:40:42.034Z,101307.78
2023-08-15T16:45:46.480Z,101303.09
2023-08-15T16:50:50.549Z,101312.44
2023-08-15T16:55:53.181Z,101302.72
2023-08-15T17:00:55.716Z,101321.91
2023-08-15T17:06:00.746Z,101343.56
2023-08-15T17:11:03.299Z,101326.56
2023-08-15T17:16:07.107Z,101326.63
2023-08-15T17:21:10.986Z,101346.47
2023-08-15T17:26:13.560Z,101338.44
2023-08-15T17:31:16.916Z,101331.34
2023-08-15T17:36:20.834Z,101328.72
2023-08-15T17:41:23.336Z,101345.81
2023-08-15T17:46:25.923Z,101360.16
2023-08-15T17:51:29.834Z,101378.09
2023-08-15T17:56:32.377Z,101395.16
2023-08-15T18:01:36.125Z,101390.66
2023-08-15T18:06:40.036Z,101406.75
2023-08-15T18:11:42.630Z,101422.91
2023-08-15T18:16:46.340Z,101423.78
2023-08-15T18:21:51.656Z,101421.97
2023-08-15T18:26:54.259Z,101430.00
2023-08-15T18:31:57.227Z,101434.47
2023-08-15T18:37:01.128Z,101447.88
2023-08-15T18:42:03.757Z,101474.84
2023-08-15T18:47:07.397Z,101484.78
2023-08-15T18:52:11.333Z,101486.56
2023-08-15T18:57:13.868Z,101481.16
2023-08-15T19:02:16.400Z,101488.34
2023-08-15T19:07:20.236Z,101487.38
2023-08-15T19:12:23.338Z,101488.25
2023-08-15T19:17:26.085Z,101506.13
2023-08-15T19:22:29.980Z,101521.22
2023-08-15T19:27:32.558Z,101528.28
2023-08-15T19:32:35.432Z,101520.19
2023-08-15T19:37:39.341Z,101519.16
2023-08-15T19:42:43.426Z,101502.94
2023-08-15T19:47:45.988Z,101519.81
2023-08-15T19:52:49.947Z,101511.72
2023-08-15T19:57:52.499Z,101511.63
2023-08-15T20:02:55.032Z,101516.03
2023-08-15T20:07:59.242Z,101501.50
2023-08-15T20:13:01.783Z,101503.09
2023-08-15T20:18:04.602Z,101500.22
2023-08-15T20:23:08.498Z,101505.41
2023-08-15T20:28:12.419Z,101507.22
2023-08-15T20:33:15.085Z,101516.28
2023-08-15T20:38:20.188Z,101528.91
2023-08-15T20:43:22.704Z,101518.19
2023-08-15T20:48:25.242Z,101528.03
2023-08-15T20:53:29.087Z,101534.31
2023-08-15T20:58:33.106Z,101528.06
2023-08-15T21:03:35.769Z,101530.72
2023-08-15T21:08:39.606Z,101544.09
2023-08-15T21:13:42.140Z,101549.31
2023-08-15T21:18:44.669Z,101557.31
2023-08-15T21:23:48.525Z,101544.75
2023-08-15T21:28:51.057Z,101547.31
2023-08-15T21:33:53.564Z,101559.72
2023-08-15T21:38:57.411Z,101564.13
2023-08-15T21:43:59.928Z,101557.84
2023-08-15T21:49:02.491Z,101564.16
2023-08-15T21:54:06.496Z,101538.06
2023-08-15T21:59:09.022Z,101545.03
2023-08-15T22:04:11.571Z,101544.75
2023-08-15T22:09:15.454Z,101543.69
2023-08-15T22:14:18.196Z,101545.34
2023-08-15T22:19:20.766Z,101544.25
2023-08-15T22:24:24.772Z,101538.03
2023-08-15T22:29:27.525Z,101545.19
2023-08-15T22:34:30.081Z,101554.13
2023-08-15T22:39:33.943Z,101558.59
2023-08-15T22:44:36.556Z,101559.53
2023-08-15T22:49:39.117Z,101565.78
2023-08-15T22:54:43.059Z,101567.50
2023-08-15T22:59:45.604Z,101577.34
2023-08-15T23:04:48.242Z,101578.16
2023-08-15T23:09:52.136Z,101579.00
2023-08-15T23:14:54.917Z,101578.88
2023-08-15T23:19:57.471Z,101586.81
2023-08-15T23:25:03.668Z,101588.47
2023-08-15T23:30:07.628Z,101588.34
2023-08-15T23:35:13.604Z,101594.50
2023-08-15T23:40:19.377Z,101594.25
2023-08-15T23:45:21.938Z,101611.97
2023-08-15T23:50:24.475Z,101610.13
2023-08-15T23:55:28.601Z,101607.47
